Time;durP1;ratioP1;P1;durP2;ratioP2;P2;SDS_P1;SDS_P2;PMS_P1;PMS_P2;Temp;Humidity;BMP_temperature;BMP_pressure;BME280_temperature;BME280_humidity;BME280_pressure;Samples;Min_cycle;Max_cycle;Signal;HPM_P1;HPM_P2
2024/01/28 00:00:11;;;;;;;5.03;2.35;;;7.10;63.50;;;;;;5068253;28;20060;-61
2024/01/28 00:02:40;;;;;;;2.28;1.63;;;7.10;63.40;;;;;;5076347;28;20057;-62
2024/01/28 00:05:09;;;;;;;4.88;2.55;;;7.20;63.40;;;;;;5085207;28;20056;-60
2024/01/28 00:07:37;;;;;;;3.08;2.17;;;7.20;63.40;;;;;;5071887;28;20074;-61
2024/01/28 00:10:06;;;;;;;1.75;1.52;;;7.20;63.20;;;;;;5070297;28;20546;-60
2024/01/28 00:12:34;;;;;;;2.72;1.75;;;7.20;63.20;;;;;;5075766;28;20048;-61
2024/01/28 00:15:06;;;;;;;10.40;3.47;;;7.20;63.10;;;;;;5073315;28;20075;-60
2024/01/28 00:17:35;;;;;;;7.78;2.40;;;7.20;63.10;;;;;;5075799;28;20060;-62
2024/01/28 00:20:05;;;;;;;1.80;1.40;;;7.20;63.20;;;;;;5065023;28;20073;-61
2024/01/28 00:22:33;;;;;;;3.38;2.15;;;7.20;63.10;;;;;;5075972;28;20060;-60
2024/01/28 00:25:02;;;;;;;3.25;1.55;;;7.20;63.10;;;;;;5069577;28;20087;-60
2024/01/28 00:27:30;;;;;;;6.32;2.28;;;7.20;63.10;;;;;;5071675;28;20747;-61
2024/01/28 00:29:59;;;;;;;1.83;1.13;;;7.30;63.10;;;;;;5066262;28;20106;-61
2024/01/28 00:32:28;;;;;;;2.28;1.33;;;7.30;63.00;;;;;;5070718;28;20138;-61
2024/01/28 00:34:57;;;;;;;12.18;4.45;;;7.40;63.00;;;;;;5066563;28;20359;-59
2024/01/28 00:37:25;;;;;;;4.68;2.33;;;7.40;62.90;;;;;;5064812;28;20725;-61
2024/01/28 00:39:53;;;;;;;3.03;2.03;;;7.40;62.80;;;;;;5074951;28;20078;-63
2024/01/28 00:42:22;;;;;;;4.70;2.05;;;7.40;62.80;;;;;;5077951;28;20083;-61
2024/01/28 00:44:50;;;;;;;3.90;1.98;;;7.40;62.70;;;;;;5068214;28;20168;-62
2024/01/28 00:47:18;;;;;;;5.95;2.60;;;7.40;62.70;;;;;;5062887;28;20056;-63
2024/01/28 00:49:48;;;;;;;3.15;1.73;;;7.40;62.70;;;;;;5074925;28;20139;-62
2024/01/28 00:52:16;;;;;;;2.40;1.27;;;7.30;62.70;;;;;;5073800;28;20078;-61
2024/01/28 00:54:45;;;;;;;4.63;1.80;;;7.30;62.50;;;;;;5070709;28;20049;-61
2024/01/28 00:57:13;;;;;;;7.75;2.85;;;7.30;62.60;;;;;;5059558;28;20056;-61
2024/01/28 00:59:42;;;;;;;17.02;3.88;;;7.30;62.50;;;;;;5075483;28;20117;-62
2024/01/28 01:02:10;;;;;;;6.75;3.13;;;7.20;62.40;;;;;;5074951;28;20063;-62
2024/01/28 01:04:38;;;;;;;8.38;2.45;;;7.20;62.30;;;;;;5072989;28;20080;-61
2024/01/28 01:07:08;;;;;;;2.20;2.00;;;7.20;62.60;;;;;;5069056;28;21029;-59
2024/01/28 01:09:36;;;;;;;3.75;1.75;;;7.20;63.00;;;;;;5065351;28;20063;-62
2024/01/28 01:12:06;;;;;;;2.10;1.60;;;7.10;62.30;;;;;;5072864;28;20061;-61
2024/01/28 01:14:37;;;;;;;2.78;1.55;;;7.10;62.20;;;;;;5085970;28;20481;-62
2024/01/28 01:17:06;;;;;;;25.75;8.73;;;7.10;62.20;;;;;;5063572;28;20125;-59
2024/01/28 01:19:34;;;;;;;8.60;3.03;;;7.10;62.70;;;;;;5061474;28;20648;-61
2024/01/28 01:22:03;;;;;;;4.55;2.05;;;7.10;62.20;;;;;;5057682;28;20619;-61
2024/01/28 01:24:33;;;;;;;3.10;1.58;;;7.10;62.40;;;;;;5072526;28;20148;-60
2024/01/28 01:27:01;;;;;;;2.80;1.40;;;7.10;62.20;;;;;;5070225;28;20056;-62
2024/01/28 01:29:30;;;;;;;7.43;1.73;;;7.10;62.30;;;;;;5062659;28;20056;-60
2024/01/28 01:31:58;;;;;;;9.15;2.80;;;7.10;62.40;;;;;;5067846;28;20044;-61
2024/01/28 01:34:27;;;;;;;3.22;1.48;;;7.10;62.40;;;;;;5073272;28;20070;-62
2024/01/28 01:36:55;;;;;;;2.25;1.65;;;7.10;62.30;;;;;;5067041;28;20125;-61
2024/01/28 01:39:24;;;;;;;6.20;2.22;;;7.10;62.30;;;;;;5060804;28;20059;-62
2024/01/28 01:41:53;;;;;;;5.65;2.42;;;7.10;62.30;;;;;;5070578;28;20064;-61
2024/01/28 01:44:22;;;;;;;1.60;1.50;;;7.10;62.20;;;;;;5077354;28;20067;-62
2024/01/28 01:46:50;;;;;;;7.78;2.50;;;7.10;62.20;;;;;;5065489;28;20067;-60
2024/01/28 01:49:18;;;;;;;7.70;1.25;;;7.10;62.20;;;;;;5061609;28;20132;-61
2024/01/28 01:51:47;;;;;;;8.60;1.52;;;7.10;62.40;;;;;;5064842;28;20529;-61
2024/01/28 01:54:16;;;;;;;2.13;1.38;;;7.10;62.40;;;;;;5062839;28;20075;-61
2024/01/28 01:56:45;;;;;;;0.82;0.82;;;7.10;62.40;;;;;;5072234;28;20094;-62
2024/01/28 01:59:15;;;;;;;27.15;8.02;;;7.10;62.40;;;;;;5066360;28;20058;-61
2024/01/28 02:01:44;;;;;;;1.27;1.02;;;7.10;62.20;;;;;;5069173;28;20624;-67
2024/01/28 02:04:13;;;;;;;4.25;2.17;;;7.20;62.40;;;;;;5063997;28;20134;-62
2024/01/28 02:06:42;;;;;;;10.55;2.15;;;7.10;62.20;;;;;;5074816;28;20140;-61
2024/01/28 02:09:10;;;;;;;1.23;0.90;;;7.20;62.50;;;;;;5066729;28;20719;-62
2024/01/28 02:11:39;;;;;;;1.67;1.58;;;7.10;61.90;;;;;;5068912;28;20048;-62
2024/01/28 02:14:07;;;;;;;2.40;1.25;;;7.10;62.00;;;;;;5072994;28;20083;-70
2024/01/28 02:16:37;;;;;;;4.55;1.27;;;7.10;62.00;;;;;;5069366;28;20049;-60
2024/01/28 02:19:05;;;;;;;1.77;1.00;;;7.20;62.10;;;;;;5070956;28;20048;-60
2024/01/28 02:21:34;;;;;;;1.40;1.30;;;7.20;62.00;;;;;;5056295;28;20055;-60
2024/01/28 02:24:04;;;;;;;5.95;2.90;;;7.20;62.30;;;;;;5069006;28;20079;-62
2024/01/28 02:26:32;;;;;;;9.63;2.67;;;7.20;61.80;;;;;;5068665;28;20040;-62
2024/01/28 02:29:01;;;;;;;14.25;4.00;;;7.10;61.60;;;;;;5071077;28;20048;-61
2024/01/28 02:31:29;;;;;;;1.48;1.10;;;7.10;61.50;;;;;;5059116;28;21578;-58
2024/01/28 02:33:58;;;;;;;1.10;1.05;;;7.10;61.60;;;;;;5077188;28;20113;-71
2024/01/28 02:36:31;;;;;;;3.67;1.38;;;7.10;61.70;;;;;;5067277;28;20131;-61
2024/01/28 02:38:59;;;;;;;1.90;1.45;;;7.10;61.90;;;;;;5072134;28;20063;-62
2024/01/28 02:41:29;;;;;;;4.00;2.83;;;7.10;61.90;;;;;;5061150;28;20048;-60
2024/01/28 02:43:58;;;;;;;2.38;1.52;;;7.10;61.80;;;;;;5067164;28;20056;-61
2024/01/28 02:46:26;;;;;;;2.55;1.42;;;7.10;61.70;;;;;;5059717;28;20080;-61
2024/01/28 02:48:55;;;;;;;9.50;3.05;;;7.10;61.60;;;;;;5072391;28;20365;-60
2024/01/28 02:51:23;;;;;;;1.17;0.90;;;7.10;61.60;;;;;;5056651;28;20559;-61
2024/01/28 02:53:52;;;;;;;4.75;1.33;;;7.10;61.60;;;;;;5063974;28;20317;-61
2024/01/28 02:56:20;;;;;;;9.48;4.25;;;7.20;61.80;;;;;;5064703;28;20116;-60
2024/01/28 02:58:50;;;;;;;15.75;3.13;;;7.20;61.80;;;;;;5070273;28;20138;-61
2024/01/28 03:01:18;;;;;;;6.25;2.35;;;7.20;61.80;;;;;;5061822;28;20114;-62
2024/01/28 03:03:46;;;;;;;14.23;3.65;;;7.20;61.80;;;;;;5060627;28;20068;-62
2024/01/28 03:06:15;;;;;;;2.67;1.00;;;7.30;61.70;;;;;;5066256;28;20056;-61
2024/01/28 03:08:44;;;;;;;11.20;1.30;;;7.30;61.70;;;;;;5066439;28;20055;-61
2024/01/28 03:11:13;;;;;;;3.70;1.40;;;7.30;61.60;;;;;;5053570;28;20056;-61
2024/01/28 03:13:41;;;;;;;5.45;1.52;;;7.30;61.40;;;;;;5065580;28;20138;-61
2024/01/28 03:16:11;;;;;;;12.25;1.17;;;7.30;61.30;;;;;;5066205;28;20621;-61
2024/01/28 03:18:39;;;;;;;1.00;0.90;;;7.30;61.30;;;;;;5064972;28;20059;-62
2024/01/28 03:21:08;;;;;;;5.05;2.05;;;7.30;61.30;;;;;;5061516;28;20064;-60
2024/01/28 03:23:36;;;;;;;17.73;5.85;;;7.20;61.20;;;;;;5067242;28;20086;-61
2024/01/28 03:26:04;;;;;;;15.48;4.60;;;7.20;61.40;;;;;;5065905;28;20150;-61
2024/01/28 03:28:33;;;;;;;1.38;1.10;;;7.20;61.40;;;;;;5072351;28;20136;-60
2024/01/28 03:31:01;;;;;;;7.28;2.28;;;7.30;61.40;;;;;;5067897;28;20059;-61
2024/01/28 03:33:31;;;;;;;4.60;2.03;;;7.30;61.50;;;;;;5065190;28;20063;-60
2024/01/28 03:35:59;;;;;;;5.35;2.72;;;7.30;61.40;;;;;;5073247;28;20056;-61
2024/01/28 03:38:28;;;;;;;4.32;1.10;;;7.30;61.30;;;;;;5060624;28;20058;-61
2024/01/28 03:40:56;;;;;;;6.55;1.95;;;7.30;61.30;;;;;;5077989;28;20704;-60
2024/01/28 03:43:24;;;;;;;1.83;0.93;;;7.30;61.30;;;;;;5067974;28;20047;-60
2024/01/28 03:45:52;;;;;;;0.50;0.50;;;7.40;61.30;;;;;;5077317;28;20056;-60
2024/01/28 03:48:21;;;;;;;4.93;2.25;;;7.40;61.20;;;;;;5067415;28;20568;-62
2024/01/28 03:50:50;;;;;;;1.23;1.00;;;7.40;61.30;;;;;;5073863;28;20087;-61
2024/01/28 03:53:19;;;;;;;3.63;1.23;;;7.40;61.20;;;;;;5068084;28;20083;-60
2024/01/28 03:55:47;;;;;;;1.23;1.08;;;7.40;61.00;;;;;;5073074;28;21619;-62
2024/01/28 03:58:15;;;;;;;6.90;1.83;;;7.40;60.90;;;;;;5075123;28;20056;-59
2024/01/28 04:00:43;;;;;;;4.95;1.88;;;7.30;60.80;;;;;;5073743;28;20051;-60
2024/01/28 04:03:12;;;;;;;2.10;1.50;;;7.30;60.70;;;;;;5067609;28;20096;-60
2024/01/28 04:05:42;;;;;;;4.32;1.63;;;7.30;61.10;;;;;;5073914;28;20076;-62
2024/01/28 04:08:12;;;;;;;1.60;1.15;;;7.20;60.50;;;;;;5064631;28;20144;-61
2024/01/28 04:10:40;;;;;;;1.33;1.20;;;7.20;60.60;;;;;;5077320;28;20052;-61
2024/01/28 04:13:09;;;;;;;3.53;1.65;;;7.10;60.50;;;;;;5059113;28;20056;-59
2024/01/28 04:15:37;;;;;;;1.85;1.38;;;7.10;60.50;;;;;;5079650;28;20047;-61
2024/01/28 04:18:06;;;;;;;3.08;1.45;;;7.00;60.40;;;;;;5068618;28;20748;-61
2024/01/28 04:20:34;;;;;;;1.42;1.15;;;7.00;60.50;;;;;;5073921;28;20125;-61
2024/01/28 04:23:03;;;;;;;3.60;1.83;;;6.90;60.50;;;;;;5062954;28;20396;-62
2024/01/28 04:25:34;;;;;;;1.00;0.88;;;6.90;60.60;;;;;;5073740;28;20057;-61
2024/01/28 04:28:03;;;;;;;1.00;1.00;;;6.80;60.70;;;;;;5087535;28;20155;-61
2024/01/28 04:30:31;;;;;;;1.00;1.00;;;6.80;60.80;;;;;;5068437;28;20392;-60
2024/01/28 04:32:59;;;;;;;25.35;2.15;;;6.80;61.00;;;;;;5059014;28;20080;-61
2024/01/28 04:35:28;;;;;;;1.27;1.10;;;6.70;61.10;;;;;;5059868;28;21926;-61
2024/01/28 04:37:57;;;;;;;1.20;1.10;;;6.80;61.20;;;;;;5067684;28;20052;-60
2024/01/28 04:40:25;;;;;;;1.40;1.30;;;6.80;61.40;;;;;;5071350;28;20129;-60
2024/01/28 04:42:54;;;;;;;0.98;0.90;;;6.90;61.40;;;;;;5079497;28;20052;-61
2024/01/28 04:45:23;;;;;;;8.23;1.60;;;6.90;61.50;;;;;;5059157;28;20057;-62
2024/01/28 04:47:51;;;;;;;1.55;1.00;;;7.00;61.10;;;;;;5068844;28;20056;-61
2024/01/28 04:50:19;;;;;;;1.05;1.05;;;7.00;61.00;;;;;;5072577;28;20056;-62
2024/01/28 04:52:48;;;;;;;1.90;1.30;;;7.10;60.90;;;;;;5075299;28;20060;-61
2024/01/28 04:55:16;;;;;;;3.10;1.80;;;7.00;60.60;;;;;;5056387;28;20135;-60
2024/01/28 04:57:44;;;;;;;5.72;1.17;;;7.00;60.50;;;;;;5070339;28;20130;-59
2024/01/28 05:00:16;;;;;;;1.90;1.05;;;7.00;60.50;;;;;;5064115;28;20121;-62
2024/01/28 05:02:44;;;;;;;1.15;1.05;;;6.90;60.50;;;;;;5067972;28;20086;-61
2024/01/28 05:05:12;;;;;;;3.50;1.55;;;6.90;60.40;;;;;;5066976;28;20056;-63
2024/01/28 05:07:40;;;;;;;1.63;1.05;;;6.90;60.40;;;;;;5077387;28;20059;-60
2024/01/28 05:10:10;;;;;;;3.78;1.67;;;6.80;60.40;;;;;;5074681;28;20056;-62
2024/01/28 05:12:38;;;;;;;1.20;1.10;;;6.80;60.40;;;;;;5070781;28;20052;-61
2024/01/28 05:15:09;;;;;;;1.80;1.42;;;6.70;60.30;;;;;;5070165;28;20063;-60
2024/01/28 05:17:39;;;;;;;2.30;1.67;;;6.70;60.30;;;;;;5075411;28;20572;-61
2024/01/28 05:20:09;;;;;;;112.88;30.35;;;6.60;60.40;;;;;;5069474;28;20060;-58
2024/01/28 05:22:37;;;;;;;13.88;4.57;;;6.60;60.40;;;;;;5065532;28;20116;-61
2024/01/28 05:25:06;;;;;;;2.47;1.60;;;6.50;60.30;;;;;;5067381;28;20139;-60
2024/01/28 05:27:35;;;;;;;1.65;1.30;;;6.50;60.40;;;;;;5070820;28;20143;-61
2024/01/28 05:30:03;;;;;;;13.60;4.70;;;6.50;60.40;;;;;;5066590;28;20113;-59
2024/01/28 05:32:32;;;;;;;19.98;1.95;;;6.50;60.50;;;;;;5065238;28;20055;-65
2024/01/28 05:35:04;;;;;;;4.35;1.65;;;6.50;60.50;;;;;;5074429;28;20056;-59
2024/01/28 05:37:32;;;;;;;1.90;1.33;;;6.50;60.40;;;;;;5063458;28;20055;-61
2024/01/28 05:40:02;;;;;;;6.00;2.47;;;6.50;60.30;;;;;;5076935;28;20056;-61
2024/01/28 05:42:31;;;;;;;5.53;2.42;;;6.40;60.40;;;;;;5066374;28;20051;-60
2024/01/28 05:45:00;;;;;;;9.27;3.10;;;6.40;60.50;;;;;;5075353;28;20414;-60
2024/01/28 05:47:28;;;;;;;2.63;1.48;;;6.40;60.60;;;;;;5077173;28;21851;-62
2024/01/28 05:49:56;;;;;;;4.22;1.08;;;6.40;60.50;;;;;;5074197;28;20068;-61
2024/01/28 05:52:26;;;;;;;6.72;1.52;;;6.50;60.60;;;;;;5073254;28;20056;-61
2024/01/28 05:54:54;;;;;;;2.42;1.25;;;6.50;60.70;;;;;;5071796;28;20064;-62
2024/01/28 05:57:23;;;;;;;1.70;1.55;;;6.50;60.60;;;;;;5054657;28;20060;-61
2024/01/28 05:59:51;;;;;;;6.97;1.60;;;6.50;60.50;;;;;;5074086;28;20052;-61
2024/01/28 06:02:21;;;;;;;2.00;1.13;;;6.50;60.60;;;;;;5066132;28;20055;-62
2024/01/28 06:04:50;;;;;;;2.95;1.90;;;6.50;60.70;;;;;;5067057;28;20064;-68
2024/01/28 06:07:19;;;;;;;9.93;3.65;;;6.60;60.70;;;;;;5061310;28;20098;-61
2024/01/28 06:09:48;;;;;;;2.08;1.17;;;6.60;60.80;;;;;;5086793;28;20044;-61
2024/01/28 06:12:18;;;;;;;28.27;8.23;;;6.60;60.70;;;;;;5063195;28;20045;-61
2024/01/28 06:14:47;;;;;;;4.55;2.63;;;6.60;60.60;;;;;;5084957;28;20044;-61
2024/01/28 06:17:15;;;;;;;9.32;2.88;;;6.70;60.60;;;;;;5061724;28;20129;-61
2024/01/28 06:19:44;;;;;;;6.03;2.15;;;6.70;60.50;;;;;;5064896;28;20442;-63
2024/01/28 06:22:14;;;;;;;0.82;0.82;;;6.70;60.30;;;;;;5066002;28;20048;-61
2024/01/28 06:24:44;;;;;;;6.13;1.70;;;6.60;60.10;;;;;;5068451;28;20052;-61
2024/01/28 06:27:14;;;;;;;4.90;2.05;;;6.60;60.10;;;;;;5067547;28;20055;-61
2024/01/28 06:29:44;;;;;;;4.47;2.45;;;6.50;60.00;;;;;;5063790;28;20147;-60
2024/01/28 06:32:12;;;;;;;5.22;1.42;;;6.50;60.00;;;;;;5074720;28;20056;-61
2024/01/28 06:34:41;;;;;;;14.35;2.03;;;6.40;59.90;;;;;;5077137;28;20044;-62
2024/01/28 06:37:10;;;;;;;3.55;1.77;;;6.30;59.80;;;;;;5077370;28;20435;-62
2024/01/28 06:39:38;;;;;;;12.43;3.05;;;6.30;59.90;;;;;;5056534;28;20067;-61
2024/01/28 06:42:06;;;;;;;4.30;2.40;;;6.30;60.00;;;;;;5069302;28;20413;-62
2024/01/28 06:44:37;;;;;;;3.33;2.55;;;6.20;59.90;;;;;;5069421;28;20116;-61
2024/01/28 06:47:06;;;;;;;5.55;2.17;;;6.20;60.00;;;;;;5070419;28;20059;-56
2024/01/28 06:49:34;;;;;;;4.10;1.85;;;6.20;59.90;;;;;;5075187;28;20058;-61
2024/01/28 06:52:03;;;;;;;5.70;2.08;;;6.10;59.90;;;;;;5064932;28;20110;-59
2024/01/28 06:54:32;;;;;;;2.65;2.00;;;6.10;60.10;;;;;;5065590;28;20048;-62
2024/01/28 06:57:00;;;;;;;3.45;2.03;;;6.10;60.20;;;;;;5074939;28;20059;-62
2024/01/28 06:59:29;;;;;;;2.55;1.83;;;6.10;60.50;;;;;;5061425;28;21450;-61
2024/01/28 07:01:58;;;;;;;2.35;2.00;;;6.10;60.40;;;;;;5066584;28;20071;-62
2024/01/28 07:04:27;;;;;;;3.88;2.05;;;6.10;60.50;;;;;;5078587;28;20085;-61
2024/01/28 07:06:55;;;;;;;3.90;2.30;;;6.20;60.70;;;;;;5067591;28;20139;-62
2024/01/28 07:09:24;;;;;;;9.02;2.25;;;6.20;60.50;;;;;;5071013;28;20037;-62
2024/01/28 07:11:52;;;;;;;2.65;1.75;;;6.20;60.40;;;;;;5079522;28;20712;-60
2024/01/28 07:14:21;;;;;;;3.92;2.42;;;6.20;60.40;;;;;;5070797;28;20048;-60
2024/01/28 07:16:49;;;;;;;2.47;1.50;;;6.20;60.50;;;;;;5072057;28;20523;-61
2024/01/28 07:19:19;;;;;;;4.03;2.00;;;6.20;60.40;;;;;;5065953;28;20068;-63
2024/01/28 07:21:47;;;;;;;2.15;1.50;;;6.30;60.50;;;;;;5075554;28;20117;-62
2024/01/28 07:24:16;;;;;;;3.33;1.55;;;6.30;60.50;;;;;;5072760;28;20055;-61
2024/01/28 07:26:46;;;;;;;3.92;1.88;;;6.40;60.70;;;;;;5064377;28;20140;-62
2024/01/28 07:29:14;;;;;;;2.08;1.50;;;6.40;60.70;;;;;;5067990;28;20062;-63
2024/01/28 07:31:42;;;;;;;3.80;1.35;;;6.50;61.00;;;;;;5073647;28;20146;-60
2024/01/28 07:34:11;;;;;;;3.10;1.60;;;6.60;60.70;;;;;;5068642;28;20456;-63
2024/01/28 07:36:41;;;;;;;2.95;1.63;;;6.60;60.60;;;;;;5063459;28;20059;-62
2024/01/28 07:39:09;;;;;;;4.45;1.52;;;6.70;60.60;;;;;;5061589;28;20063;-61
2024/01/28 07:41:38;;;;;;;2.03;1.00;;;6.80;60.60;;;;;;5072979;28;20052;-62
2024/01/28 07:44:06;;;;;;;1.30;1.20;;;6.80;60.60;;;;;;5069339;28;20044;-62
2024/01/28 07:46:35;;;;;;;4.35;1.50;;;6.90;60.70;;;;;;5087347;28;20052;-62
2024/01/28 07:49:03;;;;;;;3.22;1.42;;;6.90;60.50;;;;;;5073869;28;20052;-62
2024/01/28 07:51:32;;;;;;;4.20;1.65;;;7.00;60.50;;;;;;5068607;28;20063;-62
2024/01/28 07:54:02;;;;;;;1.27;1.17;;;7.10;60.50;;;;;;5072539;28;20056;-64
2024/01/28 07:56:30;;;;;;;1.38;1.27;;;7.20;60.60;;;;;;5072651;28;20048;-62
2024/01/28 07:58:58;;;;;;;5.15;1.77;;;7.30;60.60;;;;;;5075406;28;20529;-61
2024/01/28 08:01:30;;;;;;;1.60;1.30;;;7.40;60.50;;;;;;5065881;28;20450;-63
2024/01/28 08:03:58;;;;;;;2.30;1.70;;;7.50;60.50;;;;;;5070432;28;20125;-62
2024/01/28 08:06:27;;;;;;;5.63;2.08;;;7.60;60.50;;;;;;5072778;28;20055;-61
2024/01/28 08:08:56;;;;;;;3.15;1.88;;;7.70;60.40;;;;;;5074473;28;20075;-63
2024/01/28 08:11:25;;;;;;;3.78;2.78;;;7.80;60.30;;;;;;5066479;28;20063;-63
2024/01/28 08:13:54;;;;;;;2.97;1.35;;;7.90;60.20;;;;;;5071599;28;20067;-62
2024/01/28 08:16:22;;;;;;;10.18;2.25;;;7.90;60.00;;;;;;5075396;28;20062;-66
2024/01/28 08:18:50;;;;;;;5.55;2.42;;;8.00;60.00;;;;;;5067851;28;20052;-63
2024/01/28 08:21:19;;;;;;;5.30;2.13;;;8.10;60.20;;;;;;5067555;28;20766;-61
2024/01/28 08:23:47;;;;;;;4.25;1.88;;;8.10;59.90;;;;;;5073737;28;20052;-67
2024/01/28 08:26:16;;;;;;;1.65;0.80;;;8.20;59.90;;;;;;5070589;28;20070;-59
2024/01/28 08:28:45;;;;;;;0.90;0.90;;;8.30;60.00;;;;;;5074340;28;20369;-62
2024/01/28 08:31:14;;;;;;;1.10;0.98;;;8.40;60.10;;;;;;5054797;28;20044;-63
2024/01/28 08:33:42;;;;;;;2.97;1.65;;;8.70;60.80;;;;;;5096440;27;20052;-62
2024/01/28 08:36:11;;;;;;;4.15;1.25;;;9.20;61.00;;;;;;5066191;28;20063;-63
2024/01/28 08:38:41;;;;;;;1.00;0.60;;;9.50;60.50;;;;;;5074072;28;20064;-59
2024/01/28 08:41:10;;;;;;;1.30;0.82;;;9.70;59.70;;;;;;5064164;28;20058;-60
2024/01/28 08:43:38;;;;;;;7.95;1.75;;;9.90;59.80;;;;;;5082941;28;20074;-61
2024/01/28 08:46:08;;;;;;;1.95;1.40;;;10.40;61.20;;;;;;5084088;27;20058;-61
2024/01/28 08:48:36;;;;;;;1.38;0.82;;;10.90;61.50;;;;;;5082319;28;20048;-62
2024/01/28 08:51:06;;;;;;;4.00;1.88;;;11.30;61.20;;;;;;5071445;28;20061;-62
2024/01/28 08:53:35;;;;;;;9.65;1.67;;;11.70;60.90;;;;;;5078004;28;20135;-62
2024/01/28 08:56:03;;;;;;;13.57;1.83;;;12.00;60.80;;;;;;5074802;28;20070;-59
2024/01/28 08:58:36;;;;;;;1.83;1.20;;;12.50;60.60;;;;;;5078248;28;20079;-62
2024/01/28 09:01:05;;;;;;;4.68;1.80;;;12.90;60.00;;;;;;5084158;27;20117;-61
2024/01/28 09:03:35;;;;;;;0.65;0.65;;;13.20;59.60;;;;;;5068839;28;20070;-62
2024/01/28 09:06:06;;;;;;;3.60;1.52;;;13.50;59.10;;;;;;5077984;28;20059;-65
2024/01/28 09:08:34;;;;;;;2.08;0.80;;;13.90;58.90;;;;;;5077093;28;20547;-64
2024/01/28 09:11:03;;;;;;;3.72;1.10;;;14.20;58.40;;;;;;5087435;28;20060;-63
2024/01/28 09:13:32;;;;;;;2.95;1.20;;;14.50;57.90;;;;;;5074751;28;20221;-62
2024/01/28 09:16:00;;;;;;;4.05;1.33;;;14.80;57.60;;;;;;5084254;28;20487;-64
2024/01/28 09:18:28;;;;;;;2.08;1.20;;;15.10;57.30;;;;;;5072597;28;20070;-64
2024/01/28 09:20:58;;;;;;;5.45;1.55;;;15.50;56.80;;;;;;5082539;27;20592;-68
2024/01/28 09:23:27;;;;;;;2.13;0.95;;;15.90;56.70;;;;;;5027688;28;20044;-65
2024/01/28 09:25:55;;;;;;;5.47;1.13;;;16.20;55.50;;;;;;5075516;28;20078;-65
2024/01/28 09:28:24;;;;;;;7.88;1.52;;;16.50;55.20;;;;;;5075429;28;20060;-65
2024/01/28 09:30:52;;;;;;;2.42;1.23;;;16.80;55.10;;;;;;5072623;27;20052;-64
2024/01/28 09:33:20;;;;;;;3.55;1.23;;;17.20;55.20;;;;;;5071025;28;20096;-64
2024/01/28 09:35:52;;;;;;;5.88;1.42;;;17.60;54.30;;;;;;5067184;28;20440;-65
2024/01/28 09:38:22;;;;;;;0.90;0.60;;;17.80;53.70;;;;;;5070591;28;20059;-66
2024/01/28 09:40:52;;;;;;;0.88;0.82;;;18.20;52.80;;;;;;5062745;28;20047;-66
2024/01/28 09:43:29;;;;;;;2.92;1.10;;;18.20;52.40;;;;;;5072712;28;20746;-66
2024/01/28 09:45:59;;;;;;;1.15;0.98;;;18.10;50.20;;;;;;5069500;28;20522;-65
2024/01/28 09:48:28;;;;;;;1.95;0.93;;;18.00;51.20;;;;;;5068329;28;20052;-64
2024/01/28 09:50:57;;;;;;;4.10;1.10;;;18.30;51.70;;;;;;5073964;28;20063;-67
2024/01/28 09:53:26;;;;;;;3.55;0.85;;;18.60;51.10;;;;;;5079241;27;20397;-67
2024/01/28 09:55:55;;;;;;;1.75;0.70;;;18.90;50.70;;;;;;5088759;28;20142;-75
2024/01/28 09:58:24;;;;;;;2.28;1.27;;;19.10;49.90;;;;;;5069316;28;20052;-79
2024/01/28 10:00:52;;;;;;;0.80;0.80;;;19.30;49.70;;;;;;5088231;27;20048;-68
2024/01/28 10:03:21;;;;;;;1.90;1.05;;;19.50;49.00;;;;;;5075216;28;20095;-82
2024/01/28 10:05:49;;;;;;;2.63;1.05;;;19.80;48.70;;;;;;5075388;28;20526;-65
2024/01/28 10:08:19;;;;;;;1.75;1.00;;;20.20;48.80;;;;;;5091244;27;20032;-66
2024/01/28 10:10:49;;;;;;;1.02;0.75;;;20.60;47.60;;;;;;5072374;28;20056;-65
2024/01/28 10:13:17;;;;;;;1.00;0.70;;;20.70;46.80;;;;;;5071501;28;20131;-66
2024/01/28 10:15:55;;;;;;;1.92;0.70;;;21.00;46.70;;;;;;5064967;28;20047;-69
2024/01/28 10:18:24;;;;;;;0.77;0.68;;;21.10;46.30;;;;;;5066064;28;20079;-69
2024/01/28 10:20:53;;;;;;;1.67;0.70;;;21.40;46.00;;;;;;5066330;28;20497;-68
2024/01/28 10:23:22;;;;;;;0.50;0.50;;;21.60;45.70;;;;;;5050291;28;20131;-69
2024/01/28 10:25:56;;;;;;;4.45;0.70;;;22.00;45.60;;;;;;5087097;28;20096;-68
2024/01/28 10:28:27;;;;;;;4.13;0.90;;;22.30;45.20;;;;;;5073069;28;20150;-69
2024/01/28 10:30:56;;;;;;;1.27;0.80;;;22.70;44.90;;;;;;5059718;28;20585;-68
2024/01/28 10:33:25;;;;;;;1.23;0.63;;;22.90;44.10;;;;;;5060740;28;20424;-69
2024/01/28 10:35:54;;;;;;;2.28;0.88;;;23.10;43.90;;;;;;5059625;28;20139;-68
2024/01/28 10:38:25;;;;;;;0.80;0.80;;;23.20;43.30;;;;;;5058916;28;20048;-68
2024/01/28 10:40:55;;;;;;;0.80;0.73;;;23.30;43.40;;;;;;5059156;28;20143;-68
2024/01/28 10:43:27;;;;;;;1.08;0.77;;;23.50;43.30;;;;;;5050350;28;20496;-69
2024/01/28 10:45:57;;;;;;;2.28;1.10;;;23.40;41.70;;;;;;5063127;28;20063;-69
2024/01/28 10:48:25;;;;;;;0.73;0.60;;;23.20;41.80;;;;;;5067397;28;20044;-70
2024/01/28 10:50:55;;;;;;;17.80;3.70;;;23.10;41.70;;;;;;5068622;28;20063;-70
2024/01/28 10:53:27;;;;;;;1.95;0.80;;;22.90;41.30;;;;;;5064230;28;20044;-70
2024/01/28 10:55:59;;;;;;;10.43;3.22;;;22.80;41.90;;;;;;5063644;28;20067;-68
2024/01/28 10:58:30;;;;;;;22.65;6.00;;;22.80;41.80;;;;;;5070889;28;20059;-68
2024/01/28 11:00:58;;;;;;;5.53;1.88;;;23.00;41.80;;;;;;5069594;28;20063;-69
2024/01/28 11:03:27;;;;;;;2.22;1.13;;;23.10;41.50;;;;;;5078695;28;20080;-68
2024/01/28 11:05:56;;;;;;;0.77;0.70;;;23.00;40.90;;;;;;5058602;28;20049;-69
2024/01/28 11:08:27;;;;;;;1.45;1.00;;;22.70;40.70;;;;;;5068931;28;20050;-68
2024/01/28 11:10:57;;;;;;;5.25;0.98;;;22.40;40.90;;;;;;5071885;28;20071;-70
2024/01/28 11:13:26;;;;;;;2.05;1.30;;;22.00;40.00;;;;;;5057467;28;20037;-69
2024/01/28 11:15:55;;;;;;;5.53;2.25;;;21.60;40.90;;;;;;5068209;28;20062;-69
2024/01/28 11:18:29;;;;;;;1.40;0.73;;;21.40;41.30;;;;;;5070101;28;20074;-70
2024/01/28 11:20:58;;;;;;;18.25;5.80;;;21.10;41.10;;;;;;5076042;28;20142;-69
2024/01/28 11:23:30;;;;;;;3.13;1.58;;;20.70;41.60;;;;;;5062171;28;20051;-68
2024/01/28 11:26:02;;;;;;;1.23;0.60;;;20.40;42.00;;;;;;5073241;28;20084;-68
2024/01/28 11:28:31;;;;;;;1.58;1.45;;;20.00;42.40;;;;;;5073630;28;20044;-69
2024/01/28 11:30:59;;;;;;;1.05;0.77;;;19.50;42.30;;;;;;5064624;28;20056;-80
2024/01/28 11:33:36;;;;;;;2.95;1.00;;;18.80;42.10;;;;;;5062855;28;21746;-69
2024/01/28 11:36:06;;;;;;;1.38;1.00;;;18.00;42.80;;;;;;5066577;28;20078;-71
2024/01/28 11:38:41;;;;;;;1.00;0.90;;;17.40;43.80;;;;;;5067698;28;20498;-69
2024/01/28 11:41:15;;;;;;;1.38;0.80;;;16.80;44.40;;;;;;5062534;28;20486;-69
2024/01/28 11:43:44;;;;;;;3.55;1.48;;;16.30;45.00;;;;;;5073711;28;20067;-70
2024/01/28 11:46:13;;;;;;;0.80;0.70;;;16.00;45.60;;;;;;5062906;28;20134;-69
2024/01/28 11:48:42;;;;;;;4.15;1.30;;;15.70;46.00;;;;;;5061331;28;20064;-70
2024/01/28 11:51:11;;;;;;;1.35;0.85;;;15.60;46.30;;;;;;5064666;28;20067;-69
2024/01/28 11:53:43;;;;;;;2.03;1.20;;;15.40;46.40;;;;;;5068779;28;20052;-70
2024/01/28 11:56:13;;;;;;;4.05;1.42;;;15.30;46.60;;;;;;5067614;28;20147;-69
2024/01/28 11:58:42;;;;;;;2.55;1.35;;;15.30;46.80;;;;;;5068152;28;20433;-71
2024/01/28 12:01:11;;;;;;;1.27;1.13;;;15.20;47.00;;;;;;5062623;28;20060;-70
2024/01/28 12:03:40;;;;;;;1.85;1.10;;;15.20;47.00;;;;;;5066409;28;20049;-70
2024/01/28 12:06:09;;;;;;;9.38;1.17;;;15.20;47.00;;;;;;5071266;28;20048;-71
2024/01/28 12:08:41;;;;;;;1.75;1.23;;;15.20;46.90;;;;;;5074074;28;20051;-70
2024/01/28 12:11:12;;;;;;;4.47;1.50;;;15.10;47.00;;;;;;5080054;28;20737;-68
2024/01/28 12:13:43;;;;;;;1.00;0.73;;;15.20;46.90;;;;;;5070051;28;20052;-68
2024/01/28 12:16:12;;;;;;;14.65;2.63;;;15.20;47.00;;;;;;5069133;28;20125;-69
2024/01/28 12:18:41;;;;;;;1.52;0.70;;;15.20;47.00;;;;;;5074571;28;20059;-68
2024/01/28 12:21:17;;;;;;;1.13;0.88;;;15.30;46.80;;;;;;5067509;28;20044;-70
2024/01/28 12:23:47;;;;;;;3.35;1.20;;;15.30;46.60;;;;;;5085877;27;20079;-66
2024/01/28 12:26:16;;;;;;;0.90;0.75;;;15.30;46.50;;;;;;5077733;28;20054;-70
2024/01/28 12:28:47;;;;;;;1.90;1.10;;;15.40;46.80;;;;;;5077401;28;20087;-70
2024/01/28 12:31:16;;;;;;;1.05;0.77;;;15.40;46.50;;;;;;5060388;28;20060;-74
2024/01/28 12:33:45;;;;;;;0.65;0.60;;;15.40;46.80;;;;;;5069421;28;20474;-69
2024/01/28 12:36:14;;;;;;;1.50;0.90;;;15.50;46.00;;;;;;5073425;28;20414;-70
2024/01/28 12:38:43;;;;;;;3.70;1.75;;;15.50;46.20;;;;;;5078126;28;20133;-67
2024/01/28 12:41:12;;;;;;;1.35;0.90;;;15.60;46.20;;;;;;5065597;28;30997;-68
2024/01/28 12:43:43;;;;;;;1.02;0.77;;;15.60;46.10;;;;;;5058714;28;450853;-70
2024/01/28 12:46:13;;;;;;;2.92;1.10;;;15.70;46.20;;;;;;5061264;28;380758;-74
2024/01/28 12:48:42;;;;;;;1.58;0.90;;;15.80;46.00;;;;;;5081361;27;20055;-63
2024/01/28 12:51:11;;;;;;;0.70;0.70;;;15.80;45.80;;;;;;5061073;28;20086;-72
2024/01/28 12:53:40;;;;;;;2.03;0.82;;;15.90;45.40;;;;;;5071087;28;20138;-63
2024/01/28 12:56:08;;;;;;;1.52;0.68;;;15.90;45.20;;;;;;5068133;28;20510;-66
2024/01/28 12:58:37;;;;;;;2.75;1.08;;;15.90;45.00;;;;;;5066298;28;20056;-65
2024/01/28 13:01:06;;;;;;;15.60;6.03;;;15.90;45.30;;;;;;5076110;28;20138;-74